createdAt,value
2023-07-24T00:01:30.785Z,99576.47
2023-07-24T00:04:00.189Z,99571.91
2023-07-24T00:06:28.624Z,99567.59
2023-07-24T00:08:56.729Z,99570.03
2023-07-24T00:11:24.517Z,99567.44
2023-07-24T00:13:52.347Z,99565.47
2023-07-24T00:16:21.713Z,99564.00
2023-07-24T00:18:49.524Z,99570.19
2023-07-24T00:21:17.370Z,99557.72
2023-07-24T00:23:45.205Z,99542.84
2023-07-24T00:26:13.143Z,99544.41
2023-07-24T00:28:41.386Z,99538.41
2023-07-24T00:31:10.504Z,99538.41
2023-07-24T00:33:39.670Z,99536.88
2023-07-24T00:36:07.653Z,99537.53
2023-07-24T00:38:36.242Z,99538.50
2023-07-24T00:41:04.141Z,99532.31
2023-07-24T00:43:32.008Z,99535.34
2023-07-24T00:46:00.353Z,99536.84
2023-07-24T00:48:28.413Z,99534.06
2023-07-24T00:50:58.148Z,99530.00
2023-07-24T00:53:26.501Z,99523.09
2023-07-24T00:55:54.746Z,99520.44
2023-07-24T00:58:23.493Z,99529.28
2023-07-24T01:00:51.709Z,99533.47
2023-07-24T01:03:19.704Z,99524.94
2023-07-24T01:05:47.661Z,99519.31
2023-07-24T01:08:16.976Z,99514.00
2023-07-24T01:10:44.997Z,99518.78
2023-07-24T01:13:19.952Z,99514.53
2023-07-24T01:15:55.961Z,99510.94
2023-07-24T01:18:27.320Z,99511.91
2023-07-24T01:20:59.659Z,99504.75
2023-07-24T01:23:53.066Z,99496.09
2023-07-24T01:26:25.063Z,99495.34
2023-07-24T01:28:53.079Z,99502.50
2023-07-24T01:31:21.067Z,99497.25
2023-07-24T01:33:49.498Z,99493.53
2023-07-24T01:36:20.717Z,99504.13
2023-07-24T01:38:51.647Z,99504.97
2023-07-24T01:41:20.582Z,99498.72
2023-07-24T01:43:49.934Z,99498.56
2023-07-24T01:46:17.843Z,99494.13
2023-07-24T01:48:46.904Z,99487.94
2023-07-24T01:51:15.439Z,99484.59
2023-07-24T01:53:43.366Z,99475.78
2023-07-24T01:56:11.210Z,99482.50
2023-07-24T01:58:39.125Z,99472.00
2023-07-24T02:01:08.464Z,99474.47
2023-07-24T02:03:37.173Z,99480.78
2023-07-24T02:06:07.800Z,99466.00
2023-07-24T02:08:35.784Z,99459.72
2023-07-24T02:11:03.660Z,99462.16
2023-07-24T02:13:31.545Z,99470.13
2023-07-24T02:15:59.460Z,99464.97
2023-07-24T02:18:28.621Z,99459.41
2023-07-24T02:20:56.526Z,99445.19
2023-07-24T02:23:26.212Z,99441.56
2023-07-24T02:25:54.284Z,99433.03
2023-07-24T02:28:22.323Z,99434.69
2023-07-24T02:30:52.351Z,99436.50
2023-07-24T02:33:20.320Z,99425.25
2023-07-24T02:35:53.297Z,99422.91
2023-07-24T02:38:21.246Z,99419.09
2023-07-24T02:40:49.067Z,99425.22
2023-07-24T02:43:17.030Z,99419.16
2023-07-24T02:45:44.924Z,99424.41
2023-07-24T02:48:12.852Z,99423.44
2023-07-24T02:50:40.835Z,99419.09
2023-07-24T02:53:10.219Z,99416.41
2023-07-24T02:55:38.060Z,99418.81
2023-07-24T02:58:05.934Z,99405.38
2023-07-24T03:00:33.983Z,99410.19
2023-07-24T03:03:02.827Z,99403.22
2023-07-24T03:05:31.141Z,99421.09
2023-07-24T03:07:58.912Z,99413.84
2023-07-24T03:10:28.333Z,99411.00
2023-07-24T03:12:56.201Z,99408.28
2023-07-24T03:15:24.048Z,99405.69
2023-07-24T03:17:52.020Z,99404.94
2023-07-24T03:20:21.965Z,99395.16
2023-07-24T03:22:49.786Z,99394.13
2023-07-24T03:25:17.731Z,99389.81
2023-07-24T03:27:47.090Z,99390.88
2023-07-24T03:30:15.493Z,99388.06
2023-07-24T03:32:43.395Z,99389.06
2023-07-24T03:35:11.421Z,99380.09
2023-07-24T03:37:40.111Z,99382.00
2023-07-24T03:40:09.404Z,99378.66
2023-07-24T03:42:37.292Z,99369.75
2023-07-24T03:45:09.599Z,99351.28
2023-07-24T03:47:38.120Z,99359.25
2023-07-24T03:50:08.485Z,99345.16
2023-07-24T03:52:36.467Z,99346.03
2023-07-24T03:55:05.699Z,99348.53
2023-07-24T03:57:33.664Z,99340.44
2023-07-24T04:00:01.641Z,99337.91
2023-07-24T04:02:31.122Z,99341.50
2023-07-24T04:04:59.116Z,99331.09
2023-07-24T04:07:27.156Z,99331.56
2023-07-24T04:09:55.199Z,99323.81
2023-07-24T04:12:23.107Z,99328.88
2023-07-24T04:14:51.551Z,99327.16
2023-07-24T04:17:19.431Z,99335.16
2023-07-24T04:19:48.636Z,99333.41
2023-07-24T04:22:16.470Z,99341.03
2023-07-24T04:24:44.398Z,99340.53
2023-07-24T04:27:12.313Z,99350.31
2023-07-24T04:29:40.108Z,99357.59
2023-07-24T04:32:08.971Z,99368.16
2023-07-24T04:34:36.816Z,99371.81
2023-07-24T04:37:06.278Z,99355.84
2023-07-24T04:39:34.698Z,99346.91
2023-07-24T04:42:02.674Z,99355.97
2023-07-24T04:44:30.589Z,99354.25
2023-07-24T04:46:58.697Z,99334.84
2023-07-24T04:49:26.612Z,99330.31
2023-07-24T04:51:54.414Z,99337.34
2023-07-24T04:54:23.822Z,99347.16
2023-07-24T04:56:52.020Z,99328.34
2023-07-24T04:59:19.931Z,99332.66
2023-07-24T05:01:47.935Z,99323.81
2023-07-24T05:04:43.710Z,99343.44
2023-07-24T05:07:11.689Z,99366.25
2023-07-24T05:09:39.647Z,99368.34
2023-07-24T05:12:08.262Z,99364.91
2023-07-24T05:14:36.074Z,99327.97
2023-07-24T05:17:04.832Z,99331.25
2023-07-24T05:19:32.655Z,99327.78
2023-07-24T05:22:01.895Z,99336.59
2023-07-24T05:24:29.657Z,99330.22
2023-07-24T05:26:57.545Z,99338.00
2023-07-24T05:29:25.575Z,99339.91
2023-07-24T05:31:53.492Z,99336.41
2023-07-24T05:34:21.509Z,99334.84
2023-07-24T05:36:49.385Z,99353.44
2023-07-24T05:39:18.770Z,99349.78
2023-07-24T05:41:48.498Z,99350.59
2023-07-24T05:44:16.338Z,99348.72
2023-07-24T05:46:44.222Z,99338.94
2023-07-24T05:49:12.045Z,99332.75
2023-07-24T05:51:39.964Z,99334.41
2023-07-24T05:54:07.941Z,99341.38
2023-07-24T05:56:39.339Z,99341.47
2023-07-24T05:59:08.777Z,99351.06
2023-07-24T06:01:36.580Z,99353.59
2023-07-24T06:04:06.285Z,99349.06
2023-07-24T06:06:34.587Z,99355.25
2023-07-24T06:09:02.474Z,99354.63
2023-07-24T06:11:30.551Z,99367.84
2023-07-24T06:13:59.870Z,99370.41
2023-07-24T06:16:28.068Z,99361.47
2023-07-24T06:18:56.243Z,99369.81
2023-07-24T06:21:24.019Z,99363.00
2023-07-24T06:23:51.855Z,99368.13
2023-07-24T06:26:19.693Z,99364.47
2023-07-24T06:28:47.533Z,99381.94
2023-07-24T06:31:16.716Z,99378.53
2023-07-24T06:33:44.677Z,99380.06
2023-07-24T06:36:12.654Z,99360.72
2023-07-24T06:38:40.617Z,99372.09
2023-07-24T06:41:08.633Z,99362.41
2023-07-24T06:43:36.715Z,99358.84
2023-07-24T06:46:04.769Z,99344.28
2023-07-24T06:48:34.485Z,99342.63
2023-07-24T06:51:02.360Z,99350.31
2023-07-24T06:53:30.273Z,99359.00
2023-07-24T06:55:58.136Z,99356.22
2023-07-24T06:58:26.010Z,99358.75
2023-07-24T07:00:53.870Z,99356.31
2023-07-24T07:03:21.725Z,99370.38
2023-07-24T07:05:50.903Z,99361.66
2023-07-24T07:08:18.811Z,99365.22
2023-07-24T07:10:46.838Z,99363.09
2023-07-24T07:13:14.821Z,99353.25
2023-07-24T07:15:42.588Z,99357.69
2023-07-24T07:18:10.581Z,99362.38
2023-07-24T07:20:38.530Z,99364.00
2023-07-24T07:23:08.054Z,99361.88
2023-07-24T07:25:35.964Z,99358.16
2023-07-24T07:28:04.642Z,99360.47
2023-07-24T07:30:32.795Z,99357.84
2023-07-24T07:33:01.124Z,99353.00
2023-07-24T07:35:29.707Z,99349.03
2023-07-24T07:37:57.939Z,99350.44
2023-07-24T07:40:28.039Z,99359.88
2023-07-24T07:42:56.715Z,99367.78
2023-07-24T07:45:25.120Z,99375.41
2023-07-24T07:47:54.382Z,99375.84
2023-07-24T07:50:22.411Z,99384.97
2023-07-24T07:52:52.335Z,99390.03
2023-07-24T07:55:20.415Z,99386.19
2023-07-24T07:57:49.634Z,99385.13
2023-07-24T08:00:18.224Z,99380.09
2023-07-24T08:02:46.146Z,99383.53
2023-07-24T08:05:19.089Z,99381.94
2023-07-24T08:07:48.950Z,99367.41
2023-07-24T08:10:17.758Z,99359.63
2023-07-24T08:12:45.871Z,99371.06
2023-07-24T08:15:15.141Z,99378.34
2023-07-24T08:17:43.083Z,99381.41
2023-07-24T08:20:11.825Z,99384.38
2023-07-24T08:22:39.850Z,99373.44
2023-07-24T08:25:08.488Z,99376.59
2023-07-24T08:27:49.948Z,99365.66
2023-07-24T08:30:20.090Z,99354.81
2023-07-24T08:32:48.008Z,99350.72
2023-07-24T08:35:16.008Z,99351.78
2023-07-24T08:37:45.158Z,99351.66
2023-07-24T08:40:13.932Z,99355.09
2023-07-24T08:42:44.084Z,99356.66
2023-07-24T08:45:14.948Z,99352.63
2023-07-24T08:47:45.810Z,99343.06
2023-07-24T08:50:16.385Z,99342.66
2023-07-24T08:52:45.934Z,99348.31
2023-07-24T08:55:14.283Z,99346.19
2023-07-24T08:57:42.401Z,99339.00
2023-07-24T09:00:11.757Z,99347.47
2023-07-24T09:02:39.726Z,99337.00
2023-07-24T09:05:09.989Z,99328.88
2023-07-24T09:07:39.018Z,99329.41
2023-07-24T09:10:10.916Z,99319.50
2023-07-24T09:12:44.455Z,99325.09
2023-07-24T09:15:12.753Z,99328.09
2023-07-24T09:17:50.306Z,99315.72
2023-07-24T09:20:32.034Z,99321.06
2023-07-24T09:25:32.355Z,99315.78
2023-07-24T09:28:00.374Z,99328.06
2023-07-24T09:30:28.303Z,99325.97
2023-07-24T09:32:56.873Z,99330.84
2023-07-24T09:35:30.687Z,99320.31
2023-07-24T09:38:07.535Z,99315.66
2023-07-24T09:40:42.644Z,99316.72
2023-07-24T09:43:38.306Z,99319.31
2023-07-24T09:46:09.287Z,99317.84
2023-07-24T09:51:31.759Z,99312.09
2023-07-24T09:54:08.426Z,99311.31
2023-07-24T09:56:48.981Z,99305.69
2023-07-24T09:59:41.350Z,99307.47
2023-07-24T10:02:13.713Z,99308.25
2023-07-24T10:04:42.996Z,99297.19
2023-07-24T10:07:14.647Z,99296.78
2023-07-24T10:09:45.081Z,99296.38
2023-07-24T10:12:13.210Z,99287.53
2023-07-24T10:14:41.892Z,99290.19
2023-07-24T10:17:09.840Z,99287.56
2023-07-24T10:19:41.208Z,99269.31
2023-07-24T10:22:09.804Z,99272.19
2023-07-24T10:24:42.220Z,99271.22
2023-07-24T10:27:12.960Z,99267.00
2023-07-24T10:29:40.944Z,99271.41
2023-07-24T10:32:19.420Z,99276.75
2023-07-24T10:34:57.812Z,99278.44
2023-07-24T10:37:35.107Z,99269.78
2023-07-24T10:40:06.129Z,99283.78
2023-07-24T10:42:35.143Z,99278.28
2023-07-24T10:45:06.267Z,99271.00
2023-07-24T10:47:34.568Z,99274.66
2023-07-24T10:50:03.889Z,99282.78
2023-07-24T10:52:33.773Z,99286.78
2023-07-24T10:55:04.358Z,99279.50
2023-07-24T10:57:32.674Z,99261.94
2023-07-24T11:00:01.415Z,99271.78
2023-07-24T11:02:29.796Z,99257.47
2023-07-24T11:05:01.213Z,99255.78
2023-07-24T11:07:34.078Z,99254.00
2023-07-24T11:10:02.103Z,99242.16
2023-07-24T11:12:33.062Z,99235.53
2023-07-24T11:15:01.202Z,99229.75
2023-07-24T11:17:38.212Z,99229.75
2023-07-24T11:20:09.828Z,99230.09
2023-07-24T11:22:40.918Z,99237.09
2023-07-24T11:25:10.209Z,99225.75
2023-07-24T11:27:45.317Z,99227.91
2023-07-24T11:30:13.805Z,99226.88
2023-07-24T11:32:43.283Z,99236.09
2023-07-24T11:35:11.593Z,99223.38
2023-07-24T11:37:40.758Z,99230.25
2023-07-24T11:40:11.261Z,99235.38
2023-07-24T11:42:43.823Z,99236.75
2023-07-24T11:45:12.411Z,99233.66
2023-07-24T11:47:46.536Z,99239.84
2023-07-24T11:50:15.571Z,99241.53
2023-07-24T11:52:46.623Z,99240.25
2023-07-24T11:55:16.896Z,99242.13
2023-07-24T11:57:57.678Z,99237.09
2023-07-24T12:00:26.520Z,99233.81
2023-07-24T12:02:54.827Z,99226.19
2023-07-24T12:05:23.114Z,99230.66
2023-07-24T12:07:51.643Z,99236.94
2023-07-24T12:10:30.828Z,99237.44
2023-07-24T12:13:01.323Z,99228.25
2023-07-24T12:15:29.499Z,99231.53
2023-07-24T12:17:57.953Z,99231.06
2023-07-24T12:20:26.175Z,99256.94
2023-07-24T12:22:54.850Z,99273.66
2023-07-24T12:25:23.165Z,99265.75
2023-07-24T12:27:51.432Z,99264.75
2023-07-24T12:30:20.781Z,99279.69
2023-07-24T12:32:48.706Z,99276.63
2023-07-24T12:35:18.691Z,99268.41
2023-07-24T12:37:46.983Z,99261.97
2023-07-24T12:40:15.052Z,99247.53
2023-07-24T12:42:43.080Z,99239.19
2023-07-24T12:45:11.056Z,99233.31
2023-07-24T12:47:40.283Z,99240.22
2023-07-24T12:50:09.337Z,99243.44
2023-07-24T12:52:37.295Z,99251.34
2023-07-24T12:55:07.102Z,99248.34
2023-07-24T12:57:35.035Z,99269.38
2023-07-24T13:00:03.952Z,99266.84
2023-07-24T13:02:33.141Z,99267.78
2023-07-24T13:05:02.557Z,99262.16
2023-07-24T13:07:30.469Z,99265.72
2023-07-24T13:09:58.649Z,99265.00
2023-07-24T13:12:26.545Z,99257.81
2023-07-24T13:14:54.413Z,99258.22
2023-07-24T13:17:22.825Z,99254.56
2023-07-24T13:19:50.782Z,99244.38
2023-07-24T13:22:20.306Z,99245.41
2023-07-24T13:24:48.198Z,99240.63
2023-07-24T13:27:16.050Z,99235.97
2023-07-24T13:29:43.879Z,99234.19
2023-07-24T13:32:11.715Z,99225.09
2023-07-24T13:34:39.896Z,99227.63
2023-07-24T13:37:07.852Z,99226.44
2023-07-24T13:39:37.180Z,99236.25
2023-07-24T13:42:07.193Z,99224.44
2023-07-24T13:44:35.327Z,99217.03
2023-07-24T13:47:03.292Z,99206.28
2023-07-24T13:49:31.258Z,99188.31
2023-07-24T13:51:59.270Z,99178.97
2023-07-24T13:54:27.170Z,99170.16
2023-07-24T13:56:56.347Z,99173.59
2023-07-24T13:59:24.235Z,99173.97
2023-07-24T14:01:52.070Z,99171.47
2023-07-24T14:04:20.062Z,99170.34
2023-07-24T14:06:47.969Z,99162.03
2023-07-24T14:09:15.843Z,99171.47
2023-07-24T14:11:43.729Z,99161.44
2023-07-24T14:14:12.943Z,99163.44
2023-07-24T14:16:42.975Z,99153.91
2023-07-24T14:19:11.212Z,99148.91
2023-07-24T14:21:39.005Z,99135.47
2023-07-24T14:24:06.975Z,99122.72
2023-07-24T14:26:37.349Z,99121.81
2023-07-24T14:29:05.190Z,99117.56
2023-07-24T14:31:34.732Z,99108.91
2023-07-24T14:34:02.788Z,99105.31
2023-07-24T14:36:35.003Z,99101.13
2023-07-24T14:39:03.539Z,99105.03
2023-07-24T14:41:31.754Z,99097.06
2023-07-24T14:44:00.140Z,99108.88
2023-07-24T14:46:28.160Z,99117.94
2023-07-24T14:48:57.433Z,99115.13
2023-07-24T14:51:26.147Z,99110.78
2023-07-24T14:53:54.208Z,99107.75
2023-07-24T14:56:22.236Z,99106.47
2023-07-24T14:58:50.143Z,99103.09
2023-07-24T15:01:18.217Z,99113.19
2023-07-24T15:03:46.164Z,99105.69
2023-07-24T15:06:15.308Z,99099.38
2023-07-24T15:08:43.304Z,99101.06
2023-07-24T15:11:12.292Z,99094.50
2023-07-24T15:13:40.428Z,99089.09
2023-07-24T15:16:08.334Z,99092.72
2023-07-24T15:18:36.351Z,99108.56
2023-07-24T15:21:05.186Z,99114.56
2023-07-24T15:23:34.367Z,99111.47
2023-07-24T15:26:02.197Z,99107.28
2023-07-24T15:28:30.077Z,99099.06
2023-07-24T15:30:58.244Z,99117.72
2023-07-24T15:33:26.059Z,99112.94
2023-07-24T15:35:53.895Z,99113.00
2023-07-24T15:38:21.745Z,99116.53
2023-07-24T15:40:51.589Z,99110.44
2023-07-24T15:43:19.481Z,99116.88
2023-07-24T15:45:47.220Z,99113.28
2023-07-24T15:48:18.246Z,99118.97
2023-07-24T15:50:50.863Z,99114.31
2023-07-24T15:53:18.647Z,99120.94
2023-07-24T15:55:46.708Z,99128.13
2023-07-24T15:58:15.902Z,99125.78
2023-07-24T16:00:43.888Z,99133.19
2023-07-24T16:03:11.793Z,99136.78
2023-07-24T16:05:43.162Z,99146.63
2023-07-24T16:08:11.724Z,99147.84
2023-07-24T16:10:39.658Z,99165.47
2023-07-24T16:13:08.653Z,99156.47
2023-07-24T16:18:08.982Z,99174.63
2023-07-24T16:20:37.257Z,99179.91
2023-07-24T16:23:05.189Z,99179.53
2023-07-24T16:25:33.151Z,99191.97
2023-07-24T16:28:01.230Z,99183.31
2023-07-24T16:30:29.114Z,99184.75
2023-07-24T16:32:59.706Z,99180.63
2023-07-24T16:35:27.874Z,99185.78
2023-07-24T16:37:55.751Z,99194.84
2023-07-24T16:40:23.866Z,99204.06
2023-07-24T16:42:56.644Z,99223.56
2023-07-24T16:45:29.022Z,99223.50
2023-07-24T16:48:06.736Z,99240.28
2023-07-24T16:50:36.423Z,99242.31
2023-07-24T16:53:04.840Z,99238.19
2023-07-24T16:55:32.781Z,99256.75
2023-07-24T16:58:00.647Z,99255.84
2023-07-24T17:00:28.644Z,99254.13
2023-07-24T17:02:56.714Z,99280.31
2023-07-24T17:05:26.017Z,99288.28
2023-07-24T17:07:53.924Z,99301.31
2023-07-24T17:10:22.009Z,99282.59
2023-07-24T17:12:49.945Z,99283.56
2023-07-24T17:15:18.054Z,99275.44
2023-07-24T17:17:46.359Z,99276.47
2023-07-24T17:20:14.355Z,99278.53
2023-07-24T17:22:43.642Z,99286.66
2023-07-24T17:25:11.549Z,99296.25
2023-07-24T17:27:39.637Z,99292.38
2023-07-24T17:30:08.842Z,99304.31
2023-07-24T17:32:36.773Z,99292.31
2023-07-24T17:35:06.231Z,99286.81
2023-07-24T17:37:38.656Z,99293.69
2023-07-24T17:40:10.102Z,99300.59
2023-07-24T17:42:38.249Z,99302.72
2023-07-24T17:45:07.618Z,99299.09
2023-07-24T17:47:36.096Z,99297.06
2023-07-24T17:50:08.546Z,99296.13
2023-07-24T17:52:37.794Z,99302.31
2023-07-24T17:55:06.555Z,99299.09
2023-07-24T17:57:35.908Z,99298.28
2023-07-24T18:00:05.381Z,99302.06
2023-07-24T18:02:33.616Z,99302.31
2023-07-24T18:05:01.726Z,99304.09
2023-07-24T18:07:29.549Z,99306.41
2023-07-24T18:09:57.593Z,99315.69
2023-07-24T18:12:26.064Z,99314.16
2023-07-24T18:14:55.499Z,99313.28
2023-07-24T18:17:23.435Z,99320.81
2023-07-24T18:19:51.515Z,99323.78
2023-07-24T18:22:21.904Z,99342.34
2023-07-24T18:24:49.837Z,99329.03
2023-07-24T18:27:17.733Z,99332.53
2023-07-24T18:29:46.247Z,99334.09
2023-07-24T18:32:15.533Z,99345.66
2023-07-24T18:34:43.539Z,99351.66
2023-07-24T18:37:11.530Z,99348.34
2023-07-24T18:39:39.866Z,99355.34
2023-07-24T18:42:08.256Z,99360.72
2023-07-24T18:44:36.990Z,99361.84
2023-07-24T18:47:05.039Z,99369.44
2023-07-24T18:49:34.303Z,99378.34
2023-07-24T18:52:02.209Z,99380.88
2023-07-24T18:54:30.146Z,99384.19
2023-07-24T18:56:57.973Z,99400.34
2023-07-24T18:59:25.882Z,99393.19
2023-07-24T19:01:54.065Z,99390.88
2023-07-24T19:04:22.420Z,99398.94
2023-07-24T19:06:51.796Z,99400.34
2023-07-24T19:09:19.722Z,99403.59
2023-07-24T19:11:47.629Z,99400.47
2023-07-24T19:14:15.710Z,99411.44
2023-07-24T19:16:43.695Z,99403.69
2023-07-24T19:19:11.682Z,99417.56
2023-07-24T19:21:39.559Z,99416.53
2023-07-24T19:24:10.037Z,99426.94
2023-07-24T19:26:38.410Z,99425.16
2023-07-24T19:29:06.274Z,99431.84
2023-07-24T19:31:35.127Z,99438.78
2023-07-24T19:34:03.295Z,99443.28
2023-07-24T19:36:31.146Z,99451.22
2023-07-24T19:38:59.030Z,99453.78
2023-07-24T19:41:28.433Z,99457.63
2023-07-24T19:43:56.530Z,99463.00
2023-07-24T19:46:24.475Z,99452.25
2023-07-24T19:48:53.294Z,99461.06
2023-07-24T19:51:21.259Z,99454.59
2023-07-24T19:53:49.095Z,99459.19
2023-07-24T19:56:17.600Z,99459.69
2023-07-24T19:58:46.797Z,99457.00
2023-07-24T20:01:14.685Z,99467.81
2023-07-24T20:03:42.817Z,99471.72
2023-07-24T20:06:11.852Z,99482.88
2023-07-24T20:08:40.377Z,99484.81
2023-07-24T20:11:08.439Z,99485.81
2023-07-24T20:13:38.960Z,99483.13
2023-07-24T20:16:08.504Z,99483.13
2023-07-24T20:18:36.673Z,99492.69
2023-07-24T20:21:04.840Z,99499.84
2023-07-24T20:23:32.724Z,99508.56
2023-07-24T20:26:00.912Z,99508.56
2023-07-24T20:28:28.796Z,99512.69
2023-07-24T20:30:56.697Z,99515.16
2023-07-24T20:33:27.677Z,99518.56
2023-07-24T20:35:55.596Z,99522.44
2023-07-24T20:38:25.707Z,99528.75
2023-07-24T20:40:54.312Z,99529.41
2023-07-24T20:43:22.173Z,99534.22
2023-07-24T20:45:51.742Z,99532.28
2023-07-24T20:48:21.432Z,99547.97
2023-07-24T20:50:50.774Z,99546.22
2023-07-24T20:53:19.037Z,99541.91
2023-07-24T20:55:48.078Z,99541.63
2023-07-24T20:58:15.860Z,99547.00
2023-07-24T21:00:43.907Z,99547.00
2023-07-24T21:03:11.705Z,99559.50
2023-07-24T21:05:39.786Z,99557.75
2023-07-24T21:08:10.147Z,99560.28
2023-07-24T21:10:38.187Z,99559.63
2023-07-24T21:13:05.975Z,99561.41
2023-07-24T21:15:34.313Z,99574.53
2023-07-24T21:18:02.413Z,99572.53
2023-07-24T21:20:30.192Z,99577.34
2023-07-24T21:22:58.080Z,99577.41
2023-07-24T21:25:27.314Z,99572.28
2023-07-24T21:27:55.195Z,99579.97
2023-07-24T21:30:24.242Z,99572.03
2023-07-24T21:32:53.134Z,99582.53
2023-07-24T21:35:21.408Z,99582.41
2023-07-24T21:37:49.311Z,99584.09
2023-07-24T21:40:17.278Z,99585.28
2023-07-24T21:42:46.591Z,99584.22
2023-07-24T21:45:14.780Z,99582.56
2023-07-24T21:47:42.864Z,99580.94
2023-07-24T21:50:10.822Z,99577.69
2023-07-24T21:52:39.150Z,99583.25
2023-07-24T21:55:07.634Z,99594.72
2023-07-24T21:57:35.523Z,99599.94
2023-07-24T22:00:06.154Z,99592.81
2023-07-24T22:02:40.332Z,99595.44
2023-07-24T22:05:08.548Z,99602.66
2023-07-24T22:07:36.515Z,99598.44
2023-07-24T22:10:05.462Z,99606.31
2023-07-24T22:12:33.939Z,99601.00
2023-07-24T22:15:01.983Z,99607.19
2023-07-24T22:17:31.914Z,99609.78
2023-07-24T22:19:59.823Z,99605.41
2023-07-24T22:22:28.131Z,99601.03
2023-07-24T22:24:56.081Z,99606.31
2023-07-24T22:27:23.980Z,99605.56
2023-07-24T22:29:52.468Z,99603.03
2023-07-24T22:32:20.920Z,99606.28
2023-07-24T22:34:51.124Z,99602.88
2023-07-24T22:37:19.983Z,99605.50
2023-07-24T22:39:48.283Z,99611.50
2023-07-24T22:42:16.105Z,99613.34
2023-07-24T22:44:43.934Z,99617.63
2023-07-24T22:47:11.912Z,99613.22
2023-07-24T22:49:39.871Z,99615.66
2023-07-24T22:52:09.258Z,99619.25
2023-07-24T22:54:37.251Z,99616.56
2023-07-24T22:57:05.927Z,99613.13
2023-07-24T22:59:34.158Z,99624.34
2023-07-24T23:02:02.271Z,99613.84
2023-07-24T23:04:30.133Z,99626.97
2023-07-24T23:06:58.316Z,99619.94
2023-07-24T23:09:27.894Z,99617.41
2023-07-24T23:11:55.829Z,99621.81
2023-07-24T23:14:23.644Z,99620.88
2023-07-24T23:16:51.626Z,99621.84
2023-07-24T23:19:19.526Z,99619.25
2023-07-24T23:21:47.415Z,99614.06
2023-07-24T23:24:15.330Z,99620.47
2023-07-24T23:26:44.700Z,99622.09
2023-07-24T23:29:12.540Z,99613.34
2023-07-24T23:31:40.560Z,99609.09
2023-07-24T23:34:08.401Z,99611.72
2023-07-24T23:36:36.464Z,99603.22
2023-07-24T23:39:04.356Z,99601.38
2023-07-24T23:41:32.555Z,99601.56
2023-07-24T23:44:02.011Z,99597.91
2023-07-24T23:46:30.006Z,99603.06
2023-07-24T23:48:57.934Z,99600.63
2023-07-24T23:51:25.924Z,99605.88
2023-07-24T23:53:53.822Z,99598.13
2023-07-24T23:56:21.768Z,99605.88
2023-07-24T23:58:49.586Z,99606.91
